sensor_id;sensor_type;location;lat;lon;timestamp;temperature;humidity
2873;DHT22;1444;49.166;7.312;2023-10-31T00:01:16;12.60;99.90
2873;DHT22;1444;49.166;7.312;2023-10-31T00:03:43;12.60;99.90
2873;DHT22;1444;49.166;7.312;2023-10-31T00:06:10;12.60;99.90
2873;DHT22;1444;49.166;7.312;2023-10-31T00:08:36;12.60;99.90
2873;DHT22;1444;49.166;7.312;2023-10-31T00:11:03;12.70;99.90
2873;DHT22;1444;49.166;7.312;2023-10-31T00:13:31;12.50;99.90
2873;DHT22;1444;49.166;7.312;2023-10-31T00:15:58;12.50;99.90
2873;DHT22;1444;49.166;7.312;2023-10-31T00:18:26;12.50;99.90
2873;DHT22;1444;49.166;7.312;2023-10-31T00:20:52;12.50;99.90
2873;DHT22;1444;49.166;7.312;2023-10-31T00:23:19;12.50;99.90
2873;DHT22;1444;49.166;7.312;2023-10-31T00:25:46;12.50;99.90
2873;DHT22;1444;49.166;7.312;2023-10-31T00:28:13;12.50;99.90
2873;DHT22;1444;49.166;7.312;2023-10-31T00:30:40;12.40;99.90
2873;DHT22;1444;49.166;7.312;2023-10-31T00:33:07;12.30;99.90
2873;DHT22;1444;49.166;7.312;2023-10-31T00:35:35;12.30;99.90
2873;DHT22;1444;49.166;7.312;2023-10-31T00:38:03;12.30;99.90
2873;DHT22;1444;49.166;7.312;2023-10-31T00:40:30;12.30;99.90
2873;DHT22;1444;49.166;7.312;2023-10-31T00:42:56;12.30;99.90
2873;DHT22;1444;49.166;7.312;2023-10-31T00:45:24;12.30;99.90
2873;DHT22;1444;49.166;7.312;2023-10-31T00:47:51;12.20;99.90
2873;DHT22;1444;49.166;7.312;2023-10-31T00:50:17;12.20;99.90
2873;DHT22;1444;49.166;7.312;2023-10-31T00:55:13;12.10;99.90
2873;DHT22;1444;49.166;7.312;2023-10-31T00:57:40;12.20;99.90
2873;DHT22;1444;49.166;7.312;2023-10-31T01:00:07;12.10;99.90
2873;DHT22;1444;49.166;7.312;2023-10-31T01:02:35;12.10;99.90
2873;DHT22;1444;49.166;7.312;2023-10-31T01:05:02;12.10;99.90
2873;DHT22;1444;49.166;7.312;2023-10-31T01:07:29;12.10;99.90
2873;DHT22;1444;49.166;7.312;2023-10-31T01:09:57;12.00;99.90
2873;DHT22;1444;49.166;7.312;2023-10-31T01:12:24;12.00;99.90
2873;DHT22;1444;49.166;7.312;2023-10-31T01:14:53;12.10;99.90
2873;DHT22;1444;49.166;7.312;2023-10-31T01:17:21;12.10;99.90
2873;DHT22;1444;49.166;7.312;2023-10-31T01:19:49;12.10;99.90
2873;DHT22;1444;49.166;7.312;2023-10-31T01:22:16;12.10;99.90
2873;DHT22;1444;49.166;7.312;2023-10-31T01:24:44;12.10;99.90
2873;DHT22;1444;49.166;7.312;2023-10-31T01:27:13;12.20;99.90
2873;DHT22;1444;49.166;7.312;2023-10-31T01:29:40;12.20;99.90
2873;DHT22;1444;49.166;7.312;2023-10-31T01:32:07;12.20;99.90
2873;DHT22;1444;49.166;7.312;2023-10-31T01:34:35;12.20;99.90
2873;DHT22;1444;49.166;7.312;2023-10-31T01:37:02;12.20;99.90
2873;DHT22;1444;49.166;7.312;2023-10-31T01:39:30;12.20;99.90
2873;DHT22;1444;49.166;7.312;2023-10-31T01:41:57;12.20;99.90
2873;DHT22;1444;49.166;7.312;2023-10-31T01:44:26;12.20;99.90
2873;DHT22;1444;49.166;7.312;2023-10-31T01:46:54;12.20;99.90
2873;DHT22;1444;49.166;7.312;2023-10-31T01:49:22;12.10;99.90
2873;DHT22;1444;49.166;7.312;2023-10-31T01:51:50;12.10;99.90
2873;DHT22;1444;49.166;7.312;2023-10-31T01:54:17;12.10;99.90
2873;DHT22;1444;49.166;7.312;2023-10-31T01:56:46;12.10;99.90
2873;DHT22;1444;49.166;7.312;2023-10-31T01:59:17;12.00;99.90
2873;DHT22;1444;49.166;7.312;2023-10-31T02:01:47;12.00;99.90
2873;DHT22;1444;49.166;7.312;2023-10-31T02:04:15;12.00;99.90
2873;DHT22;1444;49.166;7.312;2023-10-31T02:06:42;12.00;99.90
2873;DHT22;1444;49.166;7.312;2023-10-31T02:09:10;12.00;99.90
2873;DHT22;1444;49.166;7.312;2023-10-31T02:11:37;12.00;99.90
2873;DHT22;1444;49.166;7.312;2023-10-31T02:14:05;12.00;99.90
2873;DHT22;1444;49.166;7.312;2023-10-31T02:16:32;11.90;99.90
2873;DHT22;1444;49.166;7.312;2023-10-31T02:19:03;11.90;99.90
2873;DHT22;1444;49.166;7.312;2023-10-31T02:21:31;12.00;99.90
2873;DHT22;1444;49.166;7.312;2023-10-31T02:24:01;11.90;99.90
2873;DHT22;1444;49.166;7.312;2023-10-31T02:26:30;11.90;99.90
2873;DHT22;1444;49.166;7.312;2023-10-31T02:28:58;11.80;99.90
2873;DHT22;1444;49.166;7.312;2023-10-31T02:31:26;11.80;99.90
2873;DHT22;1444;49.166;7.312;2023-10-31T02:33:53;11.80;99.90
2873;DHT22;1444;49.166;7.312;2023-10-31T02:36:21;11.80;99.90
2873;DHT22;1444;49.166;7.312;2023-10-31T02:38:48;11.80;99.90
2873;DHT22;1444;49.166;7.312;2023-10-31T02:41:17;11.80;99.90
2873;DHT22;1444;49.166;7.312;2023-10-31T02:43:43;11.70;99.90
2873;DHT22;1444;49.166;7.312;2023-10-31T02:46:10;11.70;99.90
2873;DHT22;1444;49.166;7.312;2023-10-31T02:51:07;11.80;99.90
2873;DHT22;1444;49.166;7.312;2023-10-31T02:53:34;11.80;99.90
2873;DHT22;1444;49.166;7.312;2023-10-31T02:56:02;11.80;99.90
2873;DHT22;1444;49.166;7.312;2023-10-31T02:58:31;11.90;99.90
2873;DHT22;1444;49.166;7.312;2023-10-31T03:00:57;12.00;99.90
2873;DHT22;1444;49.166;7.312;2023-10-31T03:03:24;12.00;99.90
2873;DHT22;1444;49.166;7.312;2023-10-31T03:05:51;12.00;99.90
2873;DHT22;1444;49.166;7.312;2023-10-31T03:08:17;12.00;99.90
2873;DHT22;1444;49.166;7.312;2023-10-31T03:10:47;12.00;99.90
2873;DHT22;1444;49.166;7.312;2023-10-31T03:13:16;12.00;99.90
2873;DHT22;1444;49.166;7.312;2023-10-31T03:15:45;12.00;99.90
2873;DHT22;1444;49.166;7.312;2023-10-31T03:18:11;12.00;99.90
2873;DHT22;1444;49.166;7.312;2023-10-31T03:20:40;12.10;99.90
2873;DHT22;1444;49.166;7.312;2023-10-31T03:23:06;12.10;99.90
2873;DHT22;1444;49.166;7.312;2023-10-31T03:25:33;12.00;99.90
2873;DHT22;1444;49.166;7.312;2023-10-31T03:28:00;12.00;99.90
2873;DHT22;1444;49.166;7.312;2023-10-31T03:30:27;11.90;99.90
2873;DHT22;1444;49.166;7.312;2023-10-31T03:32:55;11.90;99.90
2873;DHT22;1444;49.166;7.312;2023-10-31T03:35:21;12.00;99.90
2873;DHT22;1444;49.166;7.312;2023-10-31T03:37:48;11.90;99.90
2873;DHT22;1444;49.166;7.312;2023-10-31T03:40:15;12.00;99.90
2873;DHT22;1444;49.166;7.312;2023-10-31T03:42:42;11.80;99.90
2873;DHT22;1444;49.166;7.312;2023-10-31T03:45:09;11.80;99.90
2873;DHT22;1444;49.166;7.312;2023-10-31T03:47:36;11.90;99.90
2873;DHT22;1444;49.166;7.312;2023-10-31T03:50:05;11.80;99.90
2873;DHT22;1444;49.166;7.312;2023-10-31T03:52:32;11.80;99.90
2873;DHT22;1444;49.166;7.312;2023-10-31T03:54:59;11.80;99.90
2873;DHT22;1444;49.166;7.312;2023-10-31T03:57:25;11.80;99.90
2873;DHT22;1444;49.166;7.312;2023-10-31T03:59:52;11.70;99.90
2873;DHT22;1444;49.166;7.312;2023-10-31T04:02:19;11.70;99.90
2873;DHT22;1444;49.166;7.312;2023-10-31T04:04:46;11.70;99.90
2873;DHT22;1444;49.166;7.312;2023-10-31T04:07:14;11.60;99.90
2873;DHT22;1444;49.166;7.312;2023-10-31T04:09:41;11.60;99.90
2873;DHT22;1444;49.166;7.312;2023-10-31T04:12:08;11.70;99.90
2873;DHT22;1444;49.166;7.312;2023-10-31T04:14:35;11.70;99.90
2873;DHT22;1444;49.166;7.312;2023-10-31T04:17:02;11.60;99.90
2873;DHT22;1444;49.166;7.312;2023-10-31T04:19:29;11.50;99.90
2873;DHT22;1444;49.166;7.312;2023-10-31T04:21:56;11.40;99.90
2873;DHT22;1444;49.166;7.312;2023-10-31T04:24:24;11.50;99.90
2873;DHT22;1444;49.166;7.312;2023-10-31T04:26:51;11.50;99.90
2873;DHT22;1444;49.166;7.312;2023-10-31T04:29:19;11.60;99.90
2873;DHT22;1444;49.166;7.312;2023-10-31T04:31:46;11.60;99.90
2873;DHT22;1444;49.166;7.312;2023-10-31T04:34:13;11.70;99.90
2873;DHT22;1444;49.166;7.312;2023-10-31T04:36:40;11.70;99.90
2873;DHT22;1444;49.166;7.312;2023-10-31T04:39:06;11.60;99.90
2873;DHT22;1444;49.166;7.312;2023-10-31T04:41:35;11.60;99.90
2873;DHT22;1444;49.166;7.312;2023-10-31T04:44:01;11.70;99.90
2873;DHT22;1444;49.166;7.312;2023-10-31T04:46:29;11.80;99.90
2873;DHT22;1444;49.166;7.312;2023-10-31T04:48:55;11.80;99.90
2873;DHT22;1444;49.166;7.312;2023-10-31T04:51:22;11.90;99.90
2873;DHT22;1444;49.166;7.312;2023-10-31T04:53:49;11.90;99.90
2873;DHT22;1444;49.166;7.312;2023-10-31T04:56:16;12.00;99.90
2873;DHT22;1444;49.166;7.312;2023-10-31T04:58:44;12.00;99.90
2873;DHT22;1444;49.166;7.312;2023-10-31T05:01:12;11.80;99.90
2873;DHT22;1444;49.166;7.312;2023-10-31T05:03:39;11.90;99.90
2873;DHT22;1444;49.166;7.312;2023-10-31T05:06:06;11.90;99.90
2873;DHT22;1444;49.166;7.312;2023-10-31T05:08:33;11.90;99.90
2873;DHT22;1444;49.166;7.312;2023-10-31T05:11:00;11.90;99.90
2873;DHT22;1444;49.166;7.312;2023-10-31T05:13:27;11.90;99.90
2873;DHT22;1444;49.166;7.312;2023-10-31T05:15:55;11.80;99.90
2873;DHT22;1444;49.166;7.312;2023-10-31T05:18:22;11.90;99.90
2873;DHT22;1444;49.166;7.312;2023-10-31T05:20:49;11.80;99.90
2873;DHT22;1444;49.166;7.312;2023-10-31T05:23:16;11.90;99.90
2873;DHT22;1444;49.166;7.312;2023-10-31T05:25:43;11.90;99.90
2873;DHT22;1444;49.166;7.312;2023-10-31T05:28:10;11.90;99.90
2873;DHT22;1444;49.166;7.312;2023-10-31T05:30:36;11.90;99.90
2873;DHT22;1444;49.166;7.312;2023-10-31T05:33:05;11.90;99.90
2873;DHT22;1444;49.166;7.312;2023-10-31T05:35:33;11.80;99.90
2873;DHT22;1444;49.166;7.312;2023-10-31T05:38:00;11.80;99.90
2873;DHT22;1444;49.166;7.312;2023-10-31T05:40:36;11.90;99.90
2873;DHT22;1444;49.166;7.312;2023-10-31T05:43:02;11.80;99.90
2873;DHT22;1444;49.166;7.312;2023-10-31T05:45:30;11.80;99.90
2873;DHT22;1444;49.166;7.312;2023-10-31T05:47:57;11.70;99.90
2873;DHT22;1444;49.166;7.312;2023-10-31T05:50:25;11.70;99.90
2873;DHT22;1444;49.166;7.312;2023-10-31T05:52:52;11.70;99.90
2873;DHT22;1444;49.166;7.312;2023-10-31T05:55:18;11.60;99.90
2873;DHT22;1444;49.166;7.312;2023-10-31T05:57:45;11.60;99.90
2873;DHT22;1444;49.166;7.312;2023-10-31T06:00:13;11.70;99.90
2873;DHT22;1444;49.166;7.312;2023-10-31T06:02:40;11.60;99.90
2873;DHT22;1444;49.166;7.312;2023-10-31T06:05:08;11.60;99.90
2873;DHT22;1444;49.166;7.312;2023-10-31T06:07:36;11.60;99.90
2873;DHT22;1444;49.166;7.312;2023-10-31T06:10:03;11.60;99.90
2873;DHT22;1444;49.166;7.312;2023-10-31T06:12:30;11.60;99.90
2873;DHT22;1444;49.166;7.312;2023-10-31T06:14:57;11.60;99.90
2873;DHT22;1444;49.166;7.312;2023-10-31T06:17:24;11.50;99.90
2873;DHT22;1444;49.166;7.312;2023-10-31T06:19:51;11.50;99.90
2873;DHT22;1444;49.166;7.312;2023-10-31T06:22:25;11.60;99.90
2873;DHT22;1444;49.166;7.312;2023-10-31T06:24:53;11.70;99.90
2873;DHT22;1444;49.166;7.312;2023-10-31T06:27:20;11.80;99.90
2873;DHT22;1444;49.166;7.312;2023-10-31T06:29:47;11.60;99.90
2873;DHT22;1444;49.166;7.312;2023-10-31T06:32:13;11.60;99.90
2873;DHT22;1444;49.166;7.312;2023-10-31T06:34:40;11.60;99.90
2873;DHT22;1444;49.166;7.312;2023-10-31T06:37:07;11.60;99.90
2873;DHT22;1444;49.166;7.312;2023-10-31T06:39:34;11.50;99.90
2873;DHT22;1444;49.166;7.312;2023-10-31T06:42:02;11.40;99.90
2873;DHT22;1444;49.166;7.312;2023-10-31T06:44:29;11.50;99.90
2873;DHT22;1444;49.166;7.312;2023-10-31T06:46:55;11.40;99.90
2873;DHT22;1444;49.166;7.312;2023-10-31T06:49:22;11.40;99.90
2873;DHT22;1444;49.166;7.312;2023-10-31T06:51:49;11.50;99.90
2873;DHT22;1444;49.166;7.312;2023-10-31T06:54:16;11.50;99.90
2873;DHT22;1444;49.166;7.312;2023-10-31T06:56:42;11.40;99.90
2873;DHT22;1444;49.166;7.312;2023-10-31T06:59:11;11.40;99.90
2873;DHT22;1444;49.166;7.312;2023-10-31T07:01:38;11.50;99.90
2873;DHT22;1444;49.166;7.312;2023-10-31T07:04:05;11.50;99.90
2873;DHT22;1444;49.166;7.312;2023-10-31T07:06:32;11.40;99.90
2873;DHT22;1444;49.166;7.312;2023-10-31T07:08:59;11.40;99.90
2873;DHT22;1444;49.166;7.312;2023-10-31T07:11:30;11.40;99.90
2873;DHT22;1444;49.166;7.312;2023-10-31T07:13:59;11.50;99.90
2873;DHT22;1444;49.166;7.312;2023-10-31T07:16:28;11.60;99.90
2873;DHT22;1444;49.166;7.312;2023-10-31T07:18:55;11.50;99.90
2873;DHT22;1444;49.166;7.312;2023-10-31T07:21:22;11.60;99.90
2873;DHT22;1444;49.166;7.312;2023-10-31T07:23:48;11.60;99.90
2873;DHT22;1444;49.166;7.312;2023-10-31T07:26:15;11.70;99.90
2873;DHT22;1444;49.166;7.312;2023-10-31T07:28:42;11.80;99.90
2873;DHT22;1444;49.166;7.312;2023-10-31T07:31:09;11.80;99.90
2873;DHT22;1444;49.166;7.312;2023-10-31T07:33:37;11.70;99.90
2873;DHT22;1444;49.166;7.312;2023-10-31T07:36:04;11.70;99.90
2873;DHT22;1444;49.166;7.312;2023-10-31T07:38:31;11.60;99.90
2873;DHT22;1444;49.166;7.312;2023-10-31T07:40:58;11.70;99.90
2873;DHT22;1444;49.166;7.312;2023-10-31T07:43:25;11.80;99.90
2873;DHT22;1444;49.166;7.312;2023-10-31T07:45:52;11.80;99.90
2873;DHT22;1444;49.166;7.312;2023-10-31T07:50:47;11.90;99.90
2873;DHT22;1444;49.166;7.312;2023-10-31T07:53:14;11.90;99.90
2873;DHT22;1444;49.166;7.312;2023-10-31T07:55:41;11.90;99.90
2873;DHT22;1444;49.166;7.312;2023-10-31T07:58:07;11.90;99.90
2873;DHT22;1444;49.166;7.312;2023-10-31T08:00:35;12.00;99.90
2873;DHT22;1444;49.166;7.312;2023-10-31T08:03:04;12.20;99.90
2873;DHT22;1444;49.166;7.312;2023-10-31T08:05:31;12.50;99.90
2873;DHT22;1444;49.166;7.312;2023-10-31T08:07:59;12.60;99.90
2873;DHT22;1444;49.166;7.312;2023-10-31T08:10:26;12.50;99.90
2873;DHT22;1444;49.166;7.312;2023-10-31T08:12:53;12.50;99.90
2873;DHT22;1444;49.166;7.312;2023-10-31T08:15:19;12.40;99.90
2873;DHT22;1444;49.166;7.312;2023-10-31T08:17:46;12.30;99.90
2873;DHT22;1444;49.166;7.312;2023-10-31T08:20:13;12.10;99.90
2873;DHT22;1444;49.166;7.312;2023-10-31T08:22:40;12.00;99.90
2873;DHT22;1444;49.166;7.312;2023-10-31T08:25:09;12.10;99.90
2873;DHT22;1444;49.166;7.312;2023-10-31T08:27:36;12.10;99.90
2873;DHT22;1444;49.166;7.312;2023-10-31T08:30:03;12.10;99.90
2873;DHT22;1444;49.166;7.312;2023-10-31T08:32:30;12.10;99.90
2873;DHT22;1444;49.166;7.312;2023-10-31T08:34:57;12.00;99.90
2873;DHT22;1444;49.166;7.312;2023-10-31T08:37:24;12.10;99.90
2873;DHT22;1444;49.166;7.312;2023-10-31T08:39:50;12.20;99.90
2873;DHT22;1444;49.166;7.312;2023-10-31T08:44:46;12.70;99.90
2873;DHT22;1444;49.166;7.312;2023-10-31T08:47:12;13.20;99.90
2873;DHT22;1444;49.166;7.312;2023-10-31T08:49:39;13.40;99.90
2873;DHT22;1444;49.166;7.312;2023-10-31T08:52:06;13.50;99.90
2873;DHT22;1444;49.166;7.312;2023-10-31T08:57:00;13.50;99.90
2873;DHT22;1444;49.166;7.312;2023-10-31T08:59:29;13.40;99.90
2873;DHT22;1444;49.166;7.312;2023-10-31T09:01:56;13.20;99.90
2873;DHT22;1444;49.166;7.312;2023-10-31T09:04:23;13.20;99.90
2873;DHT22;1444;49.166;7.312;2023-10-31T09:07:00;13.10;99.90
2873;DHT22;1444;49.166;7.312;2023-10-31T09:09:26;13.00;99.90
2873;DHT22;1444;49.166;7.312;2023-10-31T09:11:53;12.90;99.90
2873;DHT22;1444;49.166;7.312;2023-10-31T09:14:20;12.80;99.90
2873;DHT22;1444;49.166;7.312;2023-10-31T09:16:48;12.50;99.90
2873;DHT22;1444;49.166;7.312;2023-10-31T09:19:15;12.50;99.90
2873;DHT22;1444;49.166;7.312;2023-10-31T09:21:41;12.40;99.90
2873;DHT22;1444;49.166;7.312;2023-10-31T09:24:09;12.40;99.90
2873;DHT22;1444;49.166;7.312;2023-10-31T09:26:36;12.30;99.90
2873;DHT22;1444;49.166;7.312;2023-10-31T09:29:03;12.20;99.90
2873;DHT22;1444;49.166;7.312;2023-10-31T09:31:30;12.30;99.90
2873;DHT22;1444;49.166;7.312;2023-10-31T09:33:59;12.40;99.90
2873;DHT22;1444;49.166;7.312;2023-10-31T09:36:25;12.40;99.90
2873;DHT22;1444;49.166;7.312;2023-10-31T09:38:52;12.40;99.90
2873;DHT22;1444;49.166;7.312;2023-10-31T09:41:19;12.50;99.90
2873;DHT22;1444;49.166;7.312;2023-10-31T09:43:45;12.40;99.90
2873;DHT22;1444;49.166;7.312;2023-10-31T09:46:12;12.50;99.90
2873;DHT22;1444;49.166;7.312;2023-10-31T09:48:39;12.60;99.90
2873;DHT22;1444;49.166;7.312;2023-10-31T09:51:08;12.90;99.90
2873;DHT22;1444;49.166;7.312;2023-10-31T09:53:38;13.10;99.90
2873;DHT22;1444;49.166;7.312;2023-10-31T09:58:33;13.10;99.90
2873;DHT22;1444;49.166;7.312;2023-10-31T10:01:00;13.00;99.90
2873;DHT22;1444;49.166;7.312;2023-10-31T10:03:27;13.00;99.90
2873;DHT22;1444;49.166;7.312;2023-10-31T10:05:54;13.00;99.90
2873;DHT22;1444;49.166;7.312;2023-10-31T10:10:50;13.10;99.90
2873;DHT22;1444;49.166;7.312;2023-10-31T10:13:17;13.10;99.90
2873;DHT22;1444;49.166;7.312;2023-10-31T10:15:44;13.40;99.90
2873;DHT22;1444;49.166;7.312;2023-10-31T10:18:24;13.50;99.90
2873;DHT22;1444;49.166;7.312;2023-10-31T10:20:54;13.60;99.90
2873;DHT22;1444;49.166;7.312;2023-10-31T10:23:23;13.60;99.90
2873;DHT22;1444;49.166;7.312;2023-10-31T10:25:50;13.60;99.90
2873;DHT22;1444;49.166;7.312;2023-10-31T10:28:17;13.50;99.90
2873;DHT22;1444;49.166;7.312;2023-10-31T10:30:45;13.40;99.90
2873;DHT22;1444;49.166;7.312;2023-10-31T10:33:12;13.50;99.90
2873;DHT22;1444;49.166;7.312;2023-10-31T10:35:39;13.50;99.90
2873;DHT22;1444;49.166;7.312;2023-10-31T10:38:10;13.70;99.90
2873;DHT22;1444;49.166;7.312;2023-10-31T10:40:41;13.90;99.90
2873;DHT22;1444;49.166;7.312;2023-10-31T10:43:12;13.90;99.90
2873;DHT22;1444;49.166;7.312;2023-10-31T10:45:42;14.10;99.90
2873;DHT22;1444;49.166;7.312;2023-10-31T10:50:42;14.00;99.90
2873;DHT22;1444;49.166;7.312;2023-10-31T10:53:14;14.10;99.90
2873;DHT22;1444;49.166;7.312;2023-10-31T10:55:46;14.40;99.90
2873;DHT22;1444;49.166;7.312;2023-10-31T10:58:22;14.40;99.90
2873;DHT22;1444;49.166;7.312;2023-10-31T11:00:53;14.50;99.90
2873;DHT22;1444;49.166;7.312;2023-10-31T11:03:22;14.50;99.90
2873;DHT22;1444;49.166;7.312;2023-10-31T11:05:50;14.80;99.90
2873;DHT22;1444;49.166;7.312;2023-10-31T11:08:18;14.80;99.90
2873;DHT22;1444;49.166;7.312;2023-10-31T11:10:48;14.80;99.90
2873;DHT22;1444;49.166;7.312;2023-10-31T11:13:15;15.00;99.90
2873;DHT22;1444;49.166;7.312;2023-10-31T11:15:42;15.00;99.90
2873;DHT22;1444;49.166;7.312;2023-10-31T11:18:10;15.00;99.90
2873;DHT22;1444;49.166;7.312;2023-10-31T11:20:37;15.30;99.90
2873;DHT22;1444;49.166;7.312;2023-10-31T11:23:05;15.30;99.90
2873;DHT22;1444;49.166;7.312;2023-10-31T11:25:32;15.50;99.90
2873;DHT22;1444;49.166;7.312;2023-10-31T11:28:13;15.60;99.90
2873;DHT22;1444;49.166;7.312;2023-10-31T11:30:40;15.70;99.90
2873;DHT22;1444;49.166;7.312;2023-10-31T11:33:11;15.80;99.90
2873;DHT22;1444;49.166;7.312;2023-10-31T11:35:39;15.70;99.90
2873;DHT22;1444;49.166;7.312;2023-10-31T11:38:07;15.50;99.90
2873;DHT22;1444;49.166;7.312;2023-10-31T11:40:36;15.30;99.90
2873;DHT22;1444;49.166;7.312;2023-10-31T11:43:04;15.30;99.90
2873;DHT22;1444;49.166;7.312;2023-10-31T11:45:36;15.20;99.90
2873;DHT22;1444;49.166;7.312;2023-10-31T11:48:04;15.10;99.90
2873;DHT22;1444;49.166;7.312;2023-10-31T11:50:31;15.10;99.90
2873;DHT22;1444;49.166;7.312;2023-10-31T11:53:00;15.10;99.90
2873;DHT22;1444;49.166;7.312;2023-10-31T11:55:27;15.20;99.90
2873;DHT22;1444;49.166;7.312;2023-10-31T11:57:55;15.20;99.90
2873;DHT22;1444;49.166;7.312;2023-10-31T12:00:23;15.40;99.90
2873;DHT22;1444;49.166;7.312;2023-10-31T12:03:01;15.50;99.90
2873;DHT22;1444;49.166;7.312;2023-10-31T12:05:28;15.40;99.90
2873;DHT22;1444;49.166;7.312;2023-10-31T12:07:55;15.10;99.90
2873;DHT22;1444;49.166;7.312;2023-10-31T12:10:24;15.00;99.90
2873;DHT22;1444;49.166;7.312;2023-10-31T12:12:51;14.60;99.90
2873;DHT22;1444;49.166;7.312;2023-10-31T12:15:17;14.50;99.90
2873;DHT22;1444;49.166;7.312;2023-10-31T12:17:44;14.30;99.90
2873;DHT22;1444;49.166;7.312;2023-10-31T12:20:13;14.30;99.90
2873;DHT22;1444;49.166;7.312;2023-10-31T12:22:39;14.60;99.90
2873;DHT22;1444;49.166;7.312;2023-10-31T12:25:07;14.70;99.90
2873;DHT22;1444;49.166;7.312;2023-10-31T12:27:44;15.10;99.90
2873;DHT22;1444;49.166;7.312;2023-10-31T12:30:12;15.20;99.90
2873;DHT22;1444;49.166;7.312;2023-10-31T12:32:40;15.30;99.90
2873;DHT22;1444;49.166;7.312;2023-10-31T12:35:08;15.30;99.90
2873;DHT22;1444;49.166;7.312;2023-10-31T12:37:44;15.10;99.90
2873;DHT22;1444;49.166;7.312;2023-10-31T12:40:13;15.10;99.90
2873;DHT22;1444;49.166;7.312;2023-10-31T12:42:42;14.80;99.90
2873;DHT22;1444;49.166;7.312;2023-10-31T12:45:10;14.60;99.90
2873;DHT22;1444;49.166;7.312;2023-10-31T12:47:37;14.70;99.90
2873;DHT22;1444;49.166;7.312;2023-10-31T12:50:09;14.90;99.90
2873;DHT22;1444;49.166;7.312;2023-10-31T12:52:50;14.70;99.90
2873;DHT22;1444;49.166;7.312;2023-10-31T12:55:18;14.70;99.90
2873;DHT22;1444;49.166;7.312;2023-10-31T12:57:46;14.60;99.90
2873;DHT22;1444;49.166;7.312;2023-10-31T13:00:14;14.60;99.90
2873;DHT22;1444;49.166;7.312;2023-10-31T13:02:42;14.60;99.90
2873;DHT22;1444;49.166;7.312;2023-10-31T13:05:10;14.60;99.90
2873;DHT22;1444;49.166;7.312;2023-10-31T13:07:39;14.60;99.90
2873;DHT22;1444;49.166;7.312;2023-10-31T13:10:08;14.60;99.90
2873;DHT22;1444;49.166;7.312;2023-10-31T13:12:36;14.60;99.90
2873;DHT22;1444;49.166;7.312;2023-10-31T13:15:04;14.50;99.90
2873;DHT22;1444;49.166;7.312;2023-10-31T13:19:58;14.40;99.90
2873;DHT22;1444;49.166;7.312;2023-10-31T13:22:25;14.50;99.90
2873;DHT22;1444;49.166;7.312;2023-10-31T13:24:52;14.70;99.90
2873;DHT22;1444;49.166;7.312;2023-10-31T13:27:20;14.90;99.90
2873;DHT22;1444;49.166;7.312;2023-10-31T13:29:47;15.30;99.90
2873;DHT22;1444;49.166;7.312;2023-10-31T13:32:16;15.30;99.90
2873;DHT22;1444;49.166;7.312;2023-10-31T13:34:43;15.50;99.90
2873;DHT22;1444;49.166;7.312;2023-10-31T13:37:09;15.70;99.90
2873;DHT22;1444;49.166;7.312;2023-10-31T13:39:36;15.70;99.90
2873;DHT22;1444;49.166;7.312;2023-10-31T13:42:05;15.50;99.90
2873;DHT22;1444;49.166;7.312;2023-10-31T13:44:34;15.60;99.90
2873;DHT22;1444;49.166;7.312;2023-10-31T13:47:03;15.20;99.90
2873;DHT22;1444;49.166;7.312;2023-10-31T13:49:31;15.20;99.90
2873;DHT22;1444;49.166;7.312;2023-10-31T13:51:59;14.90;99.90
2873;DHT22;1444;49.166;7.312;2023-10-31T13:54:27;15.00;99.90
2873;DHT22;1444;49.166;7.312;2023-10-31T13:56:55;15.20;99.90
2873;DHT22;1444;49.166;7.312;2023-10-31T13:59:22;15.30;99.90
2873;DHT22;1444;49.166;7.312;2023-10-31T14:01:50;15.40;99.90
2873;DHT22;1444;49.166;7.312;2023-10-31T14:04:17;15.30;99.90
2873;DHT22;1444;49.166;7.312;2023-10-31T14:06:44;15.40;99.90
2873;DHT22;1444;49.166;7.312;2023-10-31T14:09:12;15.40;99.90
2873;DHT22;1444;49.166;7.312;2023-10-31T14:11:40;15.30;99.90
2873;DHT22;1444;49.166;7.312;2023-10-31T14:14:07;15.20;99.90
2873;DHT22;1444;49.166;7.312;2023-10-31T14:16:35;15.10;99.90
2873;DHT22;1444;49.166;7.312;2023-10-31T14:19:04;15.00;99.90
2873;DHT22;1444;49.166;7.312;2023-10-31T14:21:32;15.20;99.90
2873;DHT22;1444;49.166;7.312;2023-10-31T14:23:59;15.50;99.90
2873;DHT22;1444;49.166;7.312;2023-10-31T14:26:27;15.60;99.90
2873;DHT22;1444;49.166;7.312;2023-10-31T14:28:54;15.70;99.90
2873;DHT22;1444;49.166;7.312;2023-10-31T14:31:21;15.90;99.90
2873;DHT22;1444;49.166;7.312;2023-10-31T14:33:48;15.90;99.90
2873;DHT22;1444;49.166;7.312;2023-10-31T14:38:43;15.90;99.90
2873;DHT22;1444;49.166;7.312;2023-10-31T14:41:10;15.80;99.90
2873;DHT22;1444;49.166;7.312;2023-10-31T14:43:37;15.60;99.90
2873;DHT22;1444;49.166;7.312;2023-10-31T14:46:04;15.40;99.90
2873;DHT22;1444;49.166;7.312;2023-10-31T14:48:32;15.30;99.90
2873;DHT22;1444;49.166;7.312;2023-10-31T14:50:59;15.30;99.90
2873;DHT22;1444;49.166;7.312;2023-10-31T14:53:28;15.30;99.90
2873;DHT22;1444;49.166;7.312;2023-10-31T14:55:55;15.30;99.90
2873;DHT22;1444;49.166;7.312;2023-10-31T14:58:22;15.40;99.90
2873;DHT22;1444;49.166;7.312;2023-10-31T15:00:48;15.10;99.90
2873;DHT22;1444;49.166;7.312;2023-10-31T15:03:16;15.10;99.90
2873;DHT22;1444;49.166;7.312;2023-10-31T15:05:43;15.00;99.90
2873;DHT22;1444;49.166;7.312;2023-10-31T15:08:10;15.00;99.90
2873;DHT22;1444;49.166;7.312;2023-10-31T15:10:38;14.90;99.90
2873;DHT22;1444;49.166;7.312;2023-10-31T15:13:05;14.90;99.90
2873;DHT22;1444;49.166;7.312;2023-10-31T15:15:32;14.90;99.90
2873;DHT22;1444;49.166;7.312;2023-10-31T15:17:58;14.80;99.90
2873;DHT22;1444;49.166;7.312;2023-10-31T15:20:26;14.70;99.90
2873;DHT22;1444;49.166;7.312;2023-10-31T15:22:52;14.60;99.90
2873;DHT22;1444;49.166;7.312;2023-10-31T15:25:27;14.60;99.90
2873;DHT22;1444;49.166;7.312;2023-10-31T15:27:55;14.40;99.90
2873;DHT22;1444;49.166;7.312;2023-10-31T15:30:22;14.40;99.90
2873;DHT22;1444;49.166;7.312;2023-10-31T15:32:49;14.30;99.90
2873;DHT22;1444;49.166;7.312;2023-10-31T15:35:15;14.30;99.90
2873;DHT22;1444;49.166;7.312;2023-10-31T15:37:43;14.20;99.90
2873;DHT22;1444;49.166;7.312;2023-10-31T15:40:11;14.20;99.90
2873;DHT22;1444;49.166;7.312;2023-10-31T15:42:37;14.20;99.90
2873;DHT22;1444;49.166;7.312;2023-10-31T15:45:07;14.20;99.90
2873;DHT22;1444;49.166;7.312;2023-10-31T15:47:33;14.20;99.90
2873;DHT22;1444;49.166;7.312;2023-10-31T15:50:00;14.20;99.90
2873;DHT22;1444;49.166;7.312;2023-10-31T15:52:28;14.10;99.90
2873;DHT22;1444;49.166;7.312;2023-10-31T15:54:55;14.20;99.90
2873;DHT22;1444;49.166;7.312;2023-10-31T15:57:22;14.10;99.90
2873;DHT22;1444;49.166;7.312;2023-10-31T15:59:50;14.10;99.90
2873;DHT22;1444;49.166;7.312;2023-10-31T16:02:19;14.20;99.90
2873;DHT22;1444;49.166;7.312;2023-10-31T16:04:48;14.20;99.90
2873;DHT22;1444;49.166;7.312;2023-10-31T16:07:15;14.20;99.90
2873;DHT22;1444;49.166;7.312;2023-10-31T16:09:42;14.10;99.90
2873;DHT22;1444;49.166;7.312;2023-10-31T16:12:09;14.20;99.90
2873;DHT22;1444;49.166;7.312;2023-10-31T16:14:36;14.20;99.90
2873;DHT22;1444;49.166;7.312;2023-10-31T16:17:03;14.10;99.90
2873;DHT22;1444;49.166;7.312;2023-10-31T16:19:31;13.90;99.90
2873;DHT22;1444;49.166;7.312;2023-10-31T16:21:58;13.70;99.90
2873;DHT22;1444;49.166;7.312;2023-10-31T16:24:27;13.70;99.90
2873;DHT22;1444;49.166;7.312;2023-10-31T16:26:54;13.50;99.90
2873;DHT22;1444;49.166;7.312;2023-10-31T16:29:22;13.60;99.90